sensor_id;sensor_type;location;lat;lon;timestamp;P1;durP1;ratioP1;P2;durP2;ratioP2
20637;SDS011;10478;49.004;8.470;2022-07-29T00:01:14;4.82;;;3.13;;
20637;SDS011;10478;49.004;8.470;2022-07-29T00:03:40;4.18;;;2.83;;
20637;SDS011;10478;49.004;8.470;2022-07-29T00:06:05;8.45;;;3.38;;
20637;SDS011;10478;49.004;8.470;2022-07-29T00:08:31;5.50;;;3.20;;
20637;SDS011;10478;49.004;8.470;2022-07-29T00:10:56;3.90;;;2.67;;
20637;SDS011;10478;49.004;8.470;2022-07-29T00:13:21;7.20;;;2.40;;
20637;SDS011;10478;49.004;8.470;2022-07-29T00:15:47;7.35;;;2.90;;
20637;SDS011;10478;49.004;8.470;2022-07-29T00:18:12;4.13;;;2.58;;
20637;SDS011;10478;49.004;8.470;2022-07-29T00:20:37;4.78;;;3.10;;
20637;SDS011;10478;49.004;8.470;2022-07-29T00:23:03;4.03;;;3.00;;
20637;SDS011;10478;49.004;8.470;2022-07-29T00:25:28;4.63;;;3.00;;
20637;SDS011;10478;49.004;8.470;2022-07-29T00:27:53;5.47;;;2.97;;
20637;SDS011;10478;49.004;8.470;2022-07-29T00:30:19;3.85;;;2.80;;
20637;SDS011;10478;49.004;8.470;2022-07-29T00:32:44;5.93;;;2.90;;
20637;SDS011;10478;49.004;8.470;2022-07-29T00:35:10;3.13;;;2.83;;
20637;SDS011;10478;49.004;8.470;2022-07-29T00:37:54;5.38;;;2.97;;
20637;SDS011;10478;49.004;8.470;2022-07-29T00:40:19;3.45;;;2.70;;
20637;SDS011;10478;49.004;8.470;2022-07-29T00:42:45;6.93;;;3.45;;
20637;SDS011;10478;49.004;8.470;2022-07-29T00:45:12;4.80;;;3.20;;
20637;SDS011;10478;49.004;8.470;2022-07-29T00:47:38;7.90;;;2.60;;
20637;SDS011;10478;49.004;8.470;2022-07-29T00:50:04;3.45;;;2.88;;
20637;SDS011;10478;49.004;8.470;2022-07-29T00:52:30;7.30;;;2.95;;
20637;SDS011;10478;49.004;8.470;2022-07-29T00:54:56;10.25;;;2.90;;
20637;SDS011;10478;49.004;8.470;2022-07-29T00:57:22;5.40;;;3.50;;
20637;SDS011;10478;49.004;8.470;2022-07-29T00:59:47;4.10;;;2.45;;
20637;SDS011;10478;49.004;8.470;2022-07-29T01:02:12;7.10;;;3.35;;
20637;SDS011;10478;49.004;8.470;2022-07-29T01:04:38;4.15;;;2.78;;
20637;SDS011;10478;49.004;8.470;2022-07-29T01:07:04;4.93;;;3.35;;
20637;SDS011;10478;49.004;8.470;2022-07-29T01:09:30;3.95;;;2.78;;
20637;SDS011;10478;49.004;8.470;2022-07-29T01:11:57;5.57;;;3.13;;
20637;SDS011;10478;49.004;8.470;2022-07-29T01:14:22;4.47;;;3.25;;
20637;SDS011;10478;49.004;8.470;2022-07-29T01:16:51;5.93;;;3.58;;
20637;SDS011;10478;49.004;8.470;2022-07-29T01:21:59;2.67;;;2.35;;
20637;SDS011;10478;49.004;8.470;2022-07-29T01:29:44;3.78;;;3.22;;
20637;SDS011;10478;49.004;8.470;2022-07-29T01:32:13;5.88;;;3.05;;
20637;SDS011;10478;49.004;8.470;2022-07-29T01:37:29;3.88;;;2.67;;
20637;SDS011;10478;49.004;8.470;2022-07-29T01:40:01;3.53;;;2.78;;
20637;SDS011;10478;49.004;8.470;2022-07-29T01:42:34;4.00;;;2.85;;
20637;SDS011;10478;49.004;8.470;2022-07-29T01:47:56;9.88;;;2.97;;
20637;SDS011;10478;49.004;8.470;2022-07-29T01:50:26;4.63;;;3.35;;
20637;SDS011;10478;49.004;8.470;2022-07-29T01:52:56;5.00;;;3.45;;
20637;SDS011;10478;49.004;8.470;2022-07-29T01:55:28;4.05;;;2.70;;
20637;SDS011;10478;49.004;8.470;2022-07-29T01:57:56;5.13;;;3.22;;
20637;SDS011;10478;49.004;8.470;2022-07-29T02:00:22;4.55;;;2.75;;
20637;SDS011;10478;49.004;8.470;2022-07-29T02:02:48;3.28;;;2.47;;
20637;SDS011;10478;49.004;8.470;2022-07-29T02:05:15;4.22;;;2.72;;
20637;SDS011;10478;49.004;8.470;2022-07-29T02:07:43;4.05;;;2.95;;
20637;SDS011;10478;49.004;8.470;2022-07-29T02:10:12;3.80;;;2.92;;
20637;SDS011;10478;49.004;8.470;2022-07-29T02:12:38;3.17;;;2.60;;
20637;SDS011;10478;49.004;8.470;2022-07-29T02:15:04;3.97;;;2.97;;
20637;SDS011;10478;49.004;8.470;2022-07-29T02:17:40;3.03;;;2.58;;
20637;SDS011;10478;49.004;8.470;2022-07-29T02:24:58;4.07;;;2.77;;
20637;SDS011;10478;49.004;8.470;2022-07-29T02:27:24;3.95;;;2.60;;
20637;SDS011;10478;49.004;8.470;2022-07-29T02:29:52;5.93;;;3.25;;
20637;SDS011;10478;49.004;8.470;2022-07-29T02:32:18;6.55;;;2.80;;
20637;SDS011;10478;49.004;8.470;2022-07-29T02:34:44;5.75;;;3.08;;
20637;SDS011;10478;49.004;8.470;2022-07-29T02:37:10;5.72;;;2.95;;
20637;SDS011;10478;49.004;8.470;2022-07-29T02:39:37;7.57;;;3.30;;
20637;SDS011;10478;49.004;8.470;2022-07-29T02:42:03;4.70;;;2.45;;
20637;SDS011;10478;49.004;8.470;2022-07-29T02:44:30;8.52;;;3.28;;
20637;SDS011;10478;49.004;8.470;2022-07-29T02:50:15;7.28;;;3.38;;
20637;SDS011;10478;49.004;8.470;2022-07-29T02:52:41;5.03;;;3.28;;
20637;SDS011;10478;49.004;8.470;2022-07-29T02:57:54;5.40;;;3.13;;
20637;SDS011;10478;49.004;8.470;2022-07-29T03:00:23;4.65;;;3.17;;
20637;SDS011;10478;49.004;8.470;2022-07-29T03:02:52;4.85;;;3.13;;
20637;SDS011;10478;49.004;8.470;2022-07-29T03:05:19;4.35;;;3.03;;
20637;SDS011;10478;49.004;8.470;2022-07-29T03:07:46;4.15;;;3.08;;
20637;SDS011;10478;49.004;8.470;2022-07-29T03:10:14;7.20;;;3.30;;
20637;SDS011;10478;49.004;8.470;2022-07-29T03:12:40;6.53;;;3.17;;
20637;SDS011;10478;49.004;8.470;2022-07-29T03:15:06;5.88;;;3.60;;
20637;SDS011;10478;49.004;8.470;2022-07-29T03:17:33;3.88;;;3.05;;
20637;SDS011;10478;49.004;8.470;2022-07-29T03:19:59;5.95;;;3.13;;
20637;SDS011;10478;49.004;8.470;2022-07-29T03:22:24;5.28;;;3.28;;
20637;SDS011;10478;49.004;8.470;2022-07-29T03:24:50;6.45;;;3.40;;
20637;SDS011;10478;49.004;8.470;2022-07-29T03:27:15;9.35;;;3.55;;
20637;SDS011;10478;49.004;8.470;2022-07-29T03:29:40;4.65;;;2.92;;
20637;SDS011;10478;49.004;8.470;2022-07-29T03:32:06;7.18;;;3.40;;
20637;SDS011;10478;49.004;8.470;2022-07-29T03:34:31;4.93;;;3.28;;
20637;SDS011;10478;49.004;8.470;2022-07-29T03:36:57;5.43;;;3.13;;
20637;SDS011;10478;49.004;8.470;2022-07-29T03:39:23;5.10;;;3.40;;
20637;SDS011;10478;49.004;8.470;2022-07-29T03:41:52;6.10;;;3.15;;
20637;SDS011;10478;49.004;8.470;2022-07-29T03:44:18;7.60;;;3.60;;
20637;SDS011;10478;49.004;8.470;2022-07-29T03:46:46;5.47;;;3.25;;
20637;SDS011;10478;49.004;8.470;2022-07-29T03:49:14;4.07;;;3.00;;
20637;SDS011;10478;49.004;8.470;2022-07-29T03:51:39;6.25;;;3.53;;
20637;SDS011;10478;49.004;8.470;2022-07-29T03:54:05;3.22;;;2.80;;
20637;SDS011;10478;49.004;8.470;2022-07-29T03:56:32;6.40;;;3.72;;
20637;SDS011;10478;49.004;8.470;2022-07-29T03:58:59;7.03;;;3.35;;
20637;SDS011;10478;49.004;8.470;2022-07-29T04:01:26;4.65;;;3.00;;
20637;SDS011;10478;49.004;8.470;2022-07-29T04:03:52;6.32;;;3.47;;
20637;SDS011;10478;49.004;8.470;2022-07-29T04:06:18;4.68;;;3.35;;
20637;SDS011;10478;49.004;8.470;2022-07-29T04:08:43;4.47;;;3.40;;
20637;SDS011;10478;49.004;8.470;2022-07-29T04:11:08;3.80;;;3.40;;
20637;SDS011;10478;49.004;8.470;2022-07-29T04:13:33;6.95;;;3.65;;
20637;SDS011;10478;49.004;8.470;2022-07-29T04:15:59;4.63;;;3.67;;
20637;SDS011;10478;49.004;8.470;2022-07-29T04:18:25;4.20;;;3.25;;
20637;SDS011;10478;49.004;8.470;2022-07-29T04:20:50;7.38;;;3.30;;
20637;SDS011;10478;49.004;8.470;2022-07-29T04:23:15;8.45;;;5.07;;
20637;SDS011;10478;49.004;8.470;2022-07-29T04:25:41;6.38;;;4.32;;
20637;SDS011;10478;49.004;8.470;2022-07-29T04:28:08;8.60;;;4.45;;
20637;SDS011;10478;49.004;8.470;2022-07-29T04:30:34;6.63;;;4.05;;
20637;SDS011;10478;49.004;8.470;2022-07-29T04:33:01;8.73;;;5.03;;
20637;SDS011;10478;49.004;8.470;2022-07-29T04:35:27;7.25;;;5.00;;
20637;SDS011;10478;49.004;8.470;2022-07-29T04:37:54;5.45;;;3.97;;
20637;SDS011;10478;49.004;8.470;2022-07-29T04:40:19;5.50;;;4.25;;
20637;SDS011;10478;49.004;8.470;2022-07-29T04:42:45;14.45;;;8.82;;
20637;SDS011;10478;49.004;8.470;2022-07-29T04:45:10;21.00;;;9.07;;
20637;SDS011;10478;49.004;8.470;2022-07-29T04:47:35;21.05;;;13.18;;
20637;SDS011;10478;49.004;8.470;2022-07-29T04:50:01;10.70;;;6.95;;
20637;SDS011;10478;49.004;8.470;2022-07-29T04:52:26;7.95;;;3.80;;
20637;SDS011;10478;49.004;8.470;2022-07-29T04:54:51;29.58;;;15.40;;
20637;SDS011;10478;49.004;8.470;2022-07-29T04:57:16;30.45;;;17.02;;
20637;SDS011;10478;49.004;8.470;2022-07-29T04:59:42;13.65;;;8.02;;
20637;SDS011;10478;49.004;8.470;2022-07-29T05:02:08;9.05;;;5.03;;
20637;SDS011;10478;49.004;8.470;2022-07-29T05:04:33;8.57;;;4.93;;
20637;SDS011;10478;49.004;8.470;2022-07-29T05:06:59;8.02;;;4.03;;
20637;SDS011;10478;49.004;8.470;2022-07-29T05:09:24;8.52;;;5.43;;
20637;SDS011;10478;49.004;8.470;2022-07-29T05:11:49;5.57;;;4.38;;
20637;SDS011;10478;49.004;8.470;2022-07-29T05:14:15;5.75;;;4.10;;
20637;SDS011;10478;49.004;8.470;2022-07-29T05:16:40;4.68;;;4.05;;
20637;SDS011;10478;49.004;8.470;2022-07-29T05:19:05;7.22;;;4.55;;
20637;SDS011;10478;49.004;8.470;2022-07-29T05:21:31;9.02;;;4.22;;
20637;SDS011;10478;49.004;8.470;2022-07-29T05:23:56;7.97;;;5.53;;
20637;SDS011;10478;49.004;8.470;2022-07-29T05:26:22;6.85;;;4.78;;
20637;SDS011;10478;49.004;8.470;2022-07-29T05:28:47;6.22;;;4.82;;
20637;SDS011;10478;49.004;8.470;2022-07-29T05:31:12;7.43;;;4.80;;
20637;SDS011;10478;49.004;8.470;2022-07-29T05:33:39;9.98;;;5.93;;
20637;SDS011;10478;49.004;8.470;2022-07-29T05:36:05;13.05;;;6.85;;
20637;SDS011;10478;49.004;8.470;2022-07-29T05:38:31;7.80;;;4.88;;
20637;SDS011;10478;49.004;8.470;2022-07-29T05:40:57;8.75;;;4.97;;
20637;SDS011;10478;49.004;8.470;2022-07-29T05:43:23;5.85;;;4.13;;
20637;SDS011;10478;49.004;8.470;2022-07-29T05:45:48;7.75;;;4.70;;
20637;SDS011;10478;49.004;8.470;2022-07-29T05:48:14;10.40;;;5.22;;
20637;SDS011;10478;49.004;8.470;2022-07-29T05:50:39;6.70;;;4.18;;
20637;SDS011;10478;49.004;8.470;2022-07-29T05:53:04;6.15;;;4.30;;
20637;SDS011;10478;49.004;8.470;2022-07-29T05:55:30;8.32;;;4.22;;
20637;SDS011;10478;49.004;8.470;2022-07-29T05:57:55;5.60;;;4.75;;
20637;SDS011;10478;49.004;8.470;2022-07-29T06:00:21;10.10;;;5.28;;
20637;SDS011;10478;49.004;8.470;2022-07-29T06:02:46;11.85;;;5.50;;
20637;SDS011;10478;49.004;8.470;2022-07-29T06:05:12;10.45;;;4.80;;
20637;SDS011;10478;49.004;8.470;2022-07-29T06:07:37;7.70;;;4.40;;
20637;SDS011;10478;49.004;8.470;2022-07-29T06:10:02;6.78;;;4.38;;
20637;SDS011;10478;49.004;8.470;2022-07-29T06:12:28;11.38;;;5.70;;
20637;SDS011;10478;49.004;8.470;2022-07-29T06:14:53;7.38;;;4.43;;
20637;SDS011;10478;49.004;8.470;2022-07-29T06:17:18;5.95;;;4.10;;
20637;SDS011;10478;49.004;8.470;2022-07-29T06:19:44;5.90;;;3.92;;
20637;SDS011;10478;49.004;8.470;2022-07-29T06:22:09;7.18;;;4.85;;
20637;SDS011;10478;49.004;8.470;2022-07-29T06:24:35;6.50;;;3.90;;
20637;SDS011;10478;49.004;8.470;2022-07-29T06:27:02;5.20;;;3.85;;
20637;SDS011;10478;49.004;8.470;2022-07-29T06:29:27;8.82;;;4.20;;
20637;SDS011;10478;49.004;8.470;2022-07-29T06:31:52;6.13;;;4.18;;
20637;SDS011;10478;49.004;8.470;2022-07-29T06:34:18;5.75;;;3.60;;
20637;SDS011;10478;49.004;8.470;2022-07-29T06:36:44;6.88;;;4.50;;
20637;SDS011;10478;49.004;8.470;2022-07-29T06:39:09;16.10;;;4.20;;
20637;SDS011;10478;49.004;8.470;2022-07-29T06:41:34;6.13;;;4.57;;
20637;SDS011;10478;49.004;8.470;2022-07-29T06:44:00;7.10;;;3.80;;
20637;SDS011;10478;49.004;8.470;2022-07-29T06:46:26;5.22;;;3.20;;
20637;SDS011;10478;49.004;8.470;2022-07-29T06:48:52;7.95;;;4.40;;
20637;SDS011;10478;49.004;8.470;2022-07-29T06:51:18;4.53;;;3.55;;
20637;SDS011;10478;49.004;8.470;2022-07-29T06:53:43;5.85;;;4.03;;
20637;SDS011;10478;49.004;8.470;2022-07-29T06:56:09;6.47;;;4.45;;
20637;SDS011;10478;49.004;8.470;2022-07-29T06:58:35;7.60;;;3.78;;
20637;SDS011;10478;49.004;8.470;2022-07-29T07:01:01;7.40;;;4.32;;
20637;SDS011;10478;49.004;8.470;2022-07-29T07:03:28;4.80;;;4.20;;
20637;SDS011;10478;49.004;8.470;2022-07-29T07:05:53;4.53;;;3.22;;
20637;SDS011;10478;49.004;8.470;2022-07-29T07:08:19;8.35;;;3.95;;
20637;SDS011;10478;49.004;8.470;2022-07-29T07:10:45;6.22;;;3.65;;
20637;SDS011;10478;49.004;8.470;2022-07-29T07:13:11;8.63;;;3.67;;
20637;SDS011;10478;49.004;8.470;2022-07-29T07:15:36;5.95;;;4.25;;
20637;SDS011;10478;49.004;8.470;2022-07-29T07:18:02;5.10;;;3.50;;
20637;SDS011;10478;49.004;8.470;2022-07-29T07:20:28;8.07;;;4.72;;
20637;SDS011;10478;49.004;8.470;2022-07-29T07:22:53;11.85;;;3.38;;
20637;SDS011;10478;49.004;8.470;2022-07-29T07:25:19;6.93;;;3.70;;
20637;SDS011;10478;49.004;8.470;2022-07-29T07:27:45;7.63;;;3.20;;
20637;SDS011;10478;49.004;8.470;2022-07-29T07:30:10;7.20;;;3.50;;
20637;SDS011;10478;49.004;8.470;2022-07-29T07:32:36;5.40;;;3.53;;
20637;SDS011;10478;49.004;8.470;2022-07-29T07:35:02;5.93;;;3.42;;
20637;SDS011;10478;49.004;8.470;2022-07-29T07:37:28;6.10;;;3.60;;
20637;SDS011;10478;49.004;8.470;2022-07-29T07:39:54;4.57;;;3.80;;
20637;SDS011;10478;49.004;8.470;2022-07-29T07:42:19;10.00;;;4.00;;
20637;SDS011;10478;49.004;8.470;2022-07-29T07:44:45;7.45;;;3.75;;
20637;SDS011;10478;49.004;8.470;2022-07-29T07:47:11;5.03;;;3.90;;
20637;SDS011;10478;49.004;8.470;2022-07-29T07:49:36;6.57;;;3.72;;
20637;SDS011;10478;49.004;8.470;2022-07-29T07:52:02;4.60;;;3.55;;
20637;SDS011;10478;49.004;8.470;2022-07-29T07:54:27;6.03;;;3.47;;
20637;SDS011;10478;49.004;8.470;2022-07-29T07:56:52;5.00;;;3.47;;
20637;SDS011;10478;49.004;8.470;2022-07-29T07:59:18;4.60;;;3.85;;
20637;SDS011;10478;49.004;8.470;2022-07-29T08:01:43;4.32;;;3.42;;
20637;SDS011;10478;49.004;8.470;2022-07-29T08:04:08;7.47;;;3.90;;
20637;SDS011;10478;49.004;8.470;2022-07-29T08:06:34;7.05;;;3.65;;
20637;SDS011;10478;49.004;8.470;2022-07-29T08:09:00;7.75;;;3.97;;
20637;SDS011;10478;49.004;8.470;2022-07-29T08:11:26;7.40;;;3.33;;
20637;SDS011;10478;49.004;8.470;2022-07-29T08:13:52;5.50;;;3.42;;
20637;SDS011;10478;49.004;8.470;2022-07-29T08:16:17;3.83;;;2.80;;
20637;SDS011;10478;49.004;8.470;2022-07-29T08:18:43;9.90;;;3.35;;
20637;SDS011;10478;49.004;8.470;2022-07-29T08:21:09;7.43;;;3.58;;
20637;SDS011;10478;49.004;8.470;2022-07-29T08:23:35;8.27;;;3.60;;
20637;SDS011;10478;49.004;8.470;2022-07-29T08:26:04;9.32;;;3.55;;
20637;SDS011;10478;49.004;8.470;2022-07-29T08:28:30;7.85;;;3.45;;
20637;SDS011;10478;49.004;8.470;2022-07-29T08:30:56;3.97;;;3.10;;
20637;SDS011;10478;49.004;8.470;2022-07-29T08:33:21;6.50;;;2.95;;
20637;SDS011;10478;49.004;8.470;2022-07-29T08:35:46;4.90;;;2.35;;
20637;SDS011;10478;49.004;8.470;2022-07-29T08:38:11;4.63;;;2.97;;
20637;SDS011;10478;49.004;8.470;2022-07-29T08:40:37;5.55;;;2.50;;
20637;SDS011;10478;49.004;8.470;2022-07-29T08:43:06;3.80;;;2.92;;
20637;SDS011;10478;49.004;8.470;2022-07-29T08:45:45;6.65;;;3.05;;
20637;SDS011;10478;49.004;8.470;2022-07-29T08:48:16;12.18;;;3.40;;
20637;SDS011;10478;49.004;8.470;2022-07-29T08:50:43;4.40;;;2.63;;
20637;SDS011;10478;49.004;8.470;2022-07-29T08:53:10;5.28;;;2.22;;
20637;SDS011;10478;49.004;8.470;2022-07-29T08:55:38;3.55;;;2.22;;
20637;SDS011;10478;49.004;8.470;2022-07-29T08:58:05;3.83;;;2.75;;
20637;SDS011;10478;49.004;8.470;2022-07-29T09:00:31;3.03;;;2.08;;
20637;SDS011;10478;49.004;8.470;2022-07-29T09:02:57;6.15;;;2.95;;
20637;SDS011;10478;49.004;8.470;2022-07-29T09:05:24;4.93;;;2.53;;
20637;SDS011;10478;49.004;8.470;2022-07-29T09:07:50;7.93;;;2.75;;
20637;SDS011;10478;49.004;8.470;2022-07-29T09:10:15;5.88;;;2.25;;
20637;SDS011;10478;49.004;8.470;2022-07-29T09:12:41;2.95;;;2.47;;
20637;SDS011;10478;49.004;8.470;2022-07-29T09:15:06;4.18;;;2.22;;
20637;SDS011;10478;49.004;8.470;2022-07-29T09:17:42;8.93;;;3.05;;
20637;SDS011;10478;49.004;8.470;2022-07-29T09:20:12;3.10;;;2.30;;
20637;SDS011;10478;49.004;8.470;2022-07-29T09:22:45;8.85;;;2.63;;
20637;SDS011;10478;49.004;8.470;2022-07-29T09:25:14;6.40;;;2.83;;
20637;SDS011;10478;49.004;8.470;2022-07-29T09:28:09;6.32;;;2.78;;
20637;SDS011;10478;49.004;8.470;2022-07-29T09:30:52;7.32;;;2.85;;
20637;SDS011;10478;49.004;8.470;2022-07-29T09:33:19;4.07;;;2.40;;
20637;SDS011;10478;49.004;8.470;2022-07-29T09:35:45;9.93;;;3.05;;
20637;SDS011;10478;49.004;8.470;2022-07-29T09:38:11;6.55;;;2.60;;
20637;SDS011;10478;49.004;8.470;2022-07-29T09:40:37;2.72;;;2.05;;
20637;SDS011;10478;49.004;8.470;2022-07-29T09:43:10;8.98;;;2.53;;
20637;SDS011;10478;49.004;8.470;2022-07-29T09:45:36;2.80;;;2.05;;
20637;SDS011;10478;49.004;8.470;2022-07-29T09:48:15;6.05;;;2.65;;
20637;SDS011;10478;49.004;8.470;2022-07-29T09:50:43;5.78;;;2.70;;
20637;SDS011;10478;49.004;8.470;2022-07-29T09:53:09;5.15;;;2.55;;
20637;SDS011;10478;49.004;8.470;2022-07-29T09:58:14;7.32;;;3.00;;
20637;SDS011;10478;49.004;8.470;2022-07-29T10:00:43;12.60;;;2.30;;
20637;SDS011;10478;49.004;8.470;2022-07-29T10:03:10;5.65;;;2.80;;
20637;SDS011;10478;49.004;8.470;2022-07-29T10:05:36;3.00;;;2.28;;
20637;SDS011;10478;49.004;8.470;2022-07-29T10:08:01;5.65;;;2.47;;
20637;SDS011;10478;49.004;8.470;2022-07-29T10:10:31;4.38;;;2.25;;
20637;SDS011;10478;49.004;8.470;2022-07-29T10:13:02;7.40;;;2.50;;
20637;SDS011;10478;49.004;8.470;2022-07-29T10:15:30;5.07;;;2.50;;
20637;SDS011;10478;49.004;8.470;2022-07-29T10:17:57;4.88;;;2.97;;
20637;SDS011;10478;49.004;8.470;2022-07-29T10:20:24;8.02;;;2.67;;
20637;SDS011;10478;49.004;8.470;2022-07-29T10:22:50;6.53;;;2.38;;
20637;SDS011;10478;49.004;8.470;2022-07-29T10:25:17;6.15;;;2.70;;
20637;SDS011;10478;49.004;8.470;2022-07-29T10:27:46;6.22;;;2.25;;
20637;SDS011;10478;49.004;8.470;2022-07-29T10:30:13;4.45;;;2.83;;
20637;SDS011;10478;49.004;8.470;2022-07-29T10:32:49;6.90;;;2.70;;
20637;SDS011;10478;49.004;8.470;2022-07-29T10:35:40;3.63;;;2.40;;
20637;SDS011;10478;49.004;8.470;2022-07-29T10:43:43;6.60;;;3.92;;
20637;SDS011;10478;49.004;8.470;2022-07-29T10:46:10;5.22;;;2.95;;
20637;SDS011;10478;49.004;8.470;2022-07-29T10:59:47;3.92;;;2.45;;
20637;SDS011;10478;49.004;8.470;2022-07-29T11:05:11;3.47;;;3.15;;
20637;SDS011;10478;49.004;8.470;2022-07-29T11:07:38;4.63;;;2.65;;
20637;SDS011;10478;49.004;8.470;2022-07-29T11:15:06;3.63;;;2.63;;
20637;SDS011;10478;49.004;8.470;2022-07-29T11:28:48;6.65;;;2.17;;
20637;SDS011;10478;49.004;8.470;2022-07-29T11:39:31;2.55;;;1.83;;
20637;SDS011;10478;49.004;8.470;2022-07-29T11:44:53;3.55;;;1.90;;
20637;SDS011;10478;49.004;8.470;2022-07-29T11:47:20;5.00;;;2.20;;
20637;SDS011;10478;49.004;8.470;2022-07-29T11:49:46;2.00;;;1.50;;
20637;SDS011;10478;49.004;8.470;2022-07-29T11:52:12;3.75;;;2.33;;
20637;SDS011;10478;49.004;8.470;2022-07-29T11:54:38;12.35;;;2.35;;
20637;SDS011;10478;49.004;8.470;2022-07-29T11:57:08;4.38;;;1.85;;
20637;SDS011;10478;49.004;8.470;2022-07-29T11:59:40;3.03;;;2.17;;
20637;SDS011;10478;49.004;8.470;2022-07-29T12:02:11;4.13;;;1.90;;
20637;SDS011;10478;49.004;8.470;2022-07-29T12:04:52;4.60;;;3.10;;
20637;SDS011;10478;49.004;8.470;2022-07-29T12:07:26;4.40;;;2.38;;
20637;SDS011;10478;49.004;8.470;2022-07-29T12:09:58;4.53;;;2.33;;
20637;SDS011;10478;49.004;8.470;2022-07-29T12:12:23;3.78;;;2.33;;
20637;SDS011;10478;49.004;8.470;2022-07-29T12:14:49;7.13;;;2.45;;
20637;SDS011;10478;49.004;8.470;2022-07-29T12:19:54;7.45;;;2.30;;
20637;SDS011;10478;49.004;8.470;2022-07-29T12:22:27;2.78;;;2.10;;
20637;SDS011;10478;49.004;8.470;2022-07-29T12:24:54;3.72;;;1.70;;
20637;SDS011;10478;49.004;8.470;2022-07-29T12:27:20;2.97;;;2.13;;
20637;SDS011;10478;49.004;8.470;2022-07-29T12:29:55;2.92;;;1.83;;
20637;SDS011;10478;49.004;8.470;2022-07-29T12:32:21;3.78;;;1.80;;
20637;SDS011;10478;49.004;8.470;2022-07-29T12:34:47;4.05;;;2.17;;
20637;SDS011;10478;49.004;8.470;2022-07-29T12:37:12;4.88;;;2.03;;
20637;SDS011;10478;49.004;8.470;2022-07-29T12:39:38;2.50;;;1.50;;
20637;SDS011;10478;49.004;8.470;2022-07-29T12:42:10;2.22;;;1.92;;
20637;SDS011;10478;49.004;8.470;2022-07-29T12:44:43;4.85;;;1.85;;
20637;SDS011;10478;49.004;8.470;2022-07-29T12:47:09;1.45;;;1.27;;
20637;SDS011;10478;49.004;8.470;2022-07-29T12:49:35;2.85;;;1.63;;
20637;SDS011;10478;49.004;8.470;2022-07-29T12:52:00;1.88;;;1.20;;
20637;SDS011;10478;49.004;8.470;2022-07-29T12:54:26;2.00;;;1.35;;
20637;SDS011;10478;49.004;8.470;2022-07-29T12:56:58;2.65;;;1.38;;
20637;SDS011;10478;49.004;8.470;2022-07-29T12:59:24;3.42;;;1.80;;
20637;SDS011;10478;49.004;8.470;2022-07-29T13:01:50;2.33;;;1.67;;
20637;SDS011;10478;49.004;8.470;2022-07-29T13:04:26;2.28;;;1.63;;
20637;SDS011;10478;49.004;8.470;2022-07-29T13:07:00;3.65;;;1.70;;
20637;SDS011;10478;49.004;8.470;2022-07-29T13:12:06;3.05;;;1.80;;
20637;SDS011;10478;49.004;8.470;2022-07-29T13:14:42;2.75;;;1.83;;
20637;SDS011;10478;49.004;8.470;2022-07-29T13:17:10;3.55;;;1.85;;
20637;SDS011;10478;49.004;8.470;2022-07-29T13:19:40;3.95;;;2.70;;
20637;SDS011;10478;49.004;8.470;2022-07-29T13:22:11;3.85;;;2.70;;
20637;SDS011;10478;49.004;8.470;2022-07-29T13:27:27;3.85;;;1.85;;
20637;SDS011;10478;49.004;8.470;2022-07-29T13:29:54;3.92;;;2.20;;
20637;SDS011;10478;49.004;8.470;2022-07-29T13:32:22;2.90;;;1.80;;
20637;SDS011;10478;49.004;8.470;2022-07-29T13:34:48;5.15;;;2.28;;
20637;SDS011;10478;49.004;8.470;2022-07-29T13:37:13;4.72;;;2.65;;
20637;SDS011;10478;49.004;8.470;2022-07-29T13:39:39;8.98;;;2.75;;
20637;SDS011;10478;49.004;8.470;2022-07-29T13:42:05;6.07;;;2.38;;
20637;SDS011;10478;49.004;8.470;2022-07-29T13:44:31;6.30;;;4.30;;
20637;SDS011;10478;49.004;8.470;2022-07-29T13:46:56;3.88;;;2.38;;
20637;SDS011;10478;49.004;8.470;2022-07-29T13:49:23;7.78;;;3.97;;
20637;SDS011;10478;49.004;8.470;2022-07-29T13:51:49;3.90;;;2.20;;
20637;SDS011;10478;49.004;8.470;2022-07-29T13:54:14;4.40;;;2.85;;
20637;SDS011;10478;49.004;8.470;2022-07-29T13:56:40;10.02;;;5.38;;
20637;SDS011;10478;49.004;8.470;2022-07-29T13:59:05;4.55;;;2.55;;
20637;SDS011;10478;49.004;8.470;2022-07-29T14:01:31;4.50;;;2.10;;
20637;SDS011;10478;49.004;8.470;2022-07-29T14:03:56;2.53;;;2.05;;
20637;SDS011;10478;49.004;8.470;2022-07-29T14:06:21;4.22;;;1.75;;
20637;SDS011;10478;49.004;8.470;2022-07-29T14:08:47;2.40;;;1.85;;
20637;SDS011;10478;49.004;8.470;2022-07-29T14:11:12;5.75;;;2.25;;
20637;SDS011;10478;49.004;8.470;2022-07-29T14:13:37;2.45;;;1.63;;
20637;SDS011;10478;49.004;8.470;2022-07-29T14:16:03;4.43;;;1.98;;
20637;SDS011;10478;49.004;8.470;2022-07-29T14:18:28;4.25;;;1.95;;
20637;SDS011;10478;49.004;8.470;2022-07-29T14:20:53;3.85;;;1.52;;
20637;SDS011;10478;49.004;8.470;2022-07-29T14:23:19;4.25;;;1.45;;
20637;SDS011;10478;49.004;8.470;2022-07-29T14:25:44;3.50;;;2.33;;
20637;SDS011;10478;49.004;8.470;2022-07-29T14:28:09;3.25;;;1.95;;
20637;SDS011;10478;49.004;8.470;2022-07-29T14:30:35;5.68;;;1.63;;
20637;SDS011;10478;49.004;8.470;2022-07-29T14:33:00;6.60;;;1.80;;
20637;SDS011;10478;49.004;8.470;2022-07-29T14:35:25;4.47;;;2.45;;
20637;SDS011;10478;49.004;8.470;2022-07-29T14:37:51;9.52;;;5.15;;
20637;SDS011;10478;49.004;8.470;2022-07-29T14:40:16;3.33;;;1.88;;
20637;SDS011;10478;49.004;8.470;2022-07-29T14:42:41;3.95;;;2.20;;
20637;SDS011;10478;49.004;8.470;2022-07-29T14:45:08;7.90;;;4.50;;
20637;SDS011;10478;49.004;8.470;2022-07-29T14:47:34;5.85;;;2.45;;
20637;SDS011;10478;49.004;8.470;2022-07-29T14:50:00;4.25;;;2.90;;
20637;SDS011;10478;49.004;8.470;2022-07-29T14:52:25;10.65;;;4.80;;
20637;SDS011;10478;49.004;8.470;2022-07-29T14:54:51;7.68;;;5.53;;
20637;SDS011;10478;49.004;8.470;2022-07-29T14:57:16;6.80;;;4.63;;
20637;SDS011;10478;49.004;8.470;2022-07-29T14:59:41;8.25;;;5.05;;
20637;SDS011;10478;49.004;8.470;2022-07-29T15:02:07;9.88;;;5.28;;
20637;SDS011;10478;49.004;8.470;2022-07-29T15:04:32;5.97;;;4.10;;
20637;SDS011;10478;49.004;8.470;2022-07-29T15:06:57;7.40;;;2.92;;
20637;SDS011;10478;49.004;8.470;2022-07-29T15:09:23;5.43;;;2.17;;
20637;SDS011;10478;49.004;8.470;2022-07-29T15:11:48;5.90;;;2.85;;
20637;SDS011;10478;49.004;8.470;2022-07-29T15:14:13;6.35;;;2.88;;
20637;SDS011;10478;49.004;8.470;2022-07-29T15:16:39;3.95;;;2.92;;
20637;SDS011;10478;49.004;8.470;2022-07-29T15:19:07;3.03;;;1.70;;
20637;SDS011;10478;49.004;8.470;2022-07-29T15:21:32;11.50;;;2.22;;
20637;SDS011;10478;49.004;8.470;2022-07-29T15:23:57;5.75;;;2.75;;
20637;SDS011;10478;49.004;8.470;2022-07-29T15:26:23;8.07;;;2.30;;
20637;SDS011;10478;49.004;8.470;2022-07-29T15:28:48;2.53;;;1.50;;
20637;SDS011;10478;49.004;8.470;2022-07-29T15:31:13;4.03;;;1.70;;
20637;SDS011;10478;49.004;8.470;2022-07-29T15:33:39;2.40;;;1.30;;
20637;SDS011;10478;49.004;8.470;2022-07-29T15:36:04;4.22;;;2.70;;
20637;SDS011;10478;49.004;8.470;2022-07-29T15:38:30;3.80;;;2.10;;
20637;SDS011;10478;49.004;8.470;2022-07-29T15:40:55;4.53;;;2.58;;
20637;SDS011;10478;49.004;8.470;2022-07-29T15:43:21;3.85;;;2.42;;
20637;SDS011;10478;49.004;8.470;2022-07-29T15:45:47;4.13;;;1.75;;
20637;SDS011;10478;49.004;8.470;2022-07-29T15:48:30;6.95;;;4.45;;
20637;SDS011;10478;49.004;8.470;2022-07-29T15:50:56;3.85;;;3.00;;
20637;SDS011;10478;49.004;8.470;2022-07-29T15:53:22;3.05;;;1.95;;
20637;SDS011;10478;49.004;8.470;2022-07-29T15:55:47;6.13;;;3.55;;
20637;SDS011;10478;49.004;8.470;2022-07-29T15:58:12;5.88;;;2.80;;
20637;SDS011;10478;49.004;8.470;2022-07-29T16:00:38;5.80;;;3.22;;
20637;SDS011;10478;49.004;8.470;2022-07-29T16:03:03;3.53;;;2.35;;
20637;SDS011;10478;49.004;8.470;2022-07-29T16:05:29;5.07;;;2.75;;